Terminal Aerodrome Forecast
Issued by NWS Mobile, AL

Home | Current Version | Previous Version | Text Only | Print | Product List | Glossary On
Versions: 1 2 3 4 5 6 7 8 9 10 11
000
FTUS44 KMOB 122321
TAFPNS
TAF
KPNS 122321Z 1300/1324 33008KT P6SM SKC
     FM130900 35005KT P6SM SKC
     FM132100 21013KT P6SM SKC=

USA.gov is the U.S. government's official web portal to all federal, state and local government web resources and services.